x

Cape San Martin - 55nm West Nw Of Morro Bay, Ca (46028) Wave Buoy

5:50am - Mon 25th Jul 2016 All times are PDT. -7 hours from GMT.

  • Sig Wave height 7.9ft
  • Swell Direction
  • Peak Period 9s
  • Average Period 7s
  • Wind
    18mph, 22mph gusts
  • Sea Temp 54°f
  • Air Temp 55°f
  • Sea Pressure 1013.9mb
  • Cape San Martin - 55nm West Nw Of Morro Bay, Ca
  • Cape San Martin - 55nm West Nw Of Morro Bay, Ca

More Historic Weather Station data

Upgrade to MSW Pro to gain access to the past 30 days of data for over 8000 Wavebouys and Weather Stations around the globe.

Join Pro

Comparision Forecast

View Surf forecast
   
Mon 07/25 5:50am 8ft 9s 7s 18 22 mph 1013.9mb 54f 55f
4:50am 8ft 10s 7s 18 22 mph 1013.6mb 54f 55f
3:50am 7ft 9s 7s 20 25 mph 1013.5mb 54f 55f
2:50am 7ft 9s 7s 20 25 mph 1013.3mb 54f 55f
1:50am 8ft 9s 7s 20 25 mph 1013.5mb 54f 55f
12:50am 7.5ft 9s 7s 18 22 mph 1013.6mb 54f 55f
Sun 07/24 11:50pm 7.5ft 9s 7s 20 25 mph 1013.5mb 54f 54f
10:50pm 8ft 10s 7s 18 20 mph 1013.5mb 54f 54f
9:50pm 9ft 10s 7s 18 22 mph 1013.3mb 54f 54f
8:50pm 9.5ft 9s 7s 16 20 mph 1013.1mb 54f 54f
7:50pm 9.5ft 10s 7s 16 20 mph 1013.2mb 54f 55f
6:50pm 9ft 9s 7s 13 18 mph 1013.3mb 54f 55f
5:50pm 9ft 9s 7s 16 20 mph 1013.4mb 54f 55f
4:50pm 8ft 9s 7s 16 18 mph 1013.6mb 54f 55f
3:50pm 9ft 10s 7s 16 20 mph 1013.7mb 54f 55f
2:50pm 8.5ft 9s 7s 16 20 mph 1013.6mb 54f 55f
1:50pm 9ft 9s 7s 18 22 mph 1013.4mb 54f 55f
12:50pm 9ft 9s 7s 16 18 mph 1013.4mb 54f 55f
11:50am 9ft 9s 7s 18 22 mph 1013.2mb 54f 55f
10:50am 9.5ft 10s 7s 16 20 mph 1013mb 54f 55f
9:50am 9ft 9s 7s 18 20 mph 1012.5mb 54f 55f
8:50am 9ft 9s 7s 20 25 mph 1012.1mb 54f 55f
7:50am 10ft 9s 7s 22 29 mph 1011.5mb 54f 55f
6:50am 9ft 10s 7s 20 27 mph 1011mb 54f 56f
5:50am 10ft 9s 7s 22 27 mph 1010.4mb 54f 56f
4:50am 9ft 9s 7s 25 29 mph 1009.8mb 54f 56f
3:50am 10ft 9s 7s 20 25 mph 1009.7mb 54f 56f
2:50am 10ft 9s 7s 25 29 mph 1009.4mb 54f 56f
1:50am 10ft 10s 7s 31 36 mph 1009.1mb 54f 56f
12:50am 9.5ft 10s 6s 29 36 mph 1009.5mb 54f 56f
Sat 07/23 11:50pm 10ft 10s 6s 29 36 mph 1009.8mb 54f 57f
10:50pm 9.5ft 9s 6s 29 36 mph 1009.8mb 54f 57f
9:50pm 10.5ft 10s 6s 31 40 mph 1009.5mb 54f 57f
8:50pm 10ft 8s 6s 34 38 mph 1009.2mb 54f 57f
7:50pm 10.5ft 9s 6s 34 40 mph 1009mb 54f 57f
6:50pm 10ft 8s 6s 31 38 mph 1009.1mb 54f 57f
5:50pm 9.5ft 9s 7s 25 29 mph 1010.6mb 55f 57f
4:50pm 9ft 8s 6s 25 31 mph 1011.3mb 55f 56f
3:50pm 9.5ft 9s 7s 25 29 mph 1011.8mb 55f 56f
2:50pm 9ft 9s 6s 25 31 mph 1012.5mb 55f 56f
1:50pm 9ft 9s 7s 20 25 mph 1013.5mb 55f 56f
12:50pm 8ft 8s 6s 25 31 mph 1013.5mb 54f 56f
11:50am 8.5ft 8s 6s 25 29 mph 1013.8mb 55f 56f
10:50am 8ft 8s 6s 27 34 mph 1013.4mb 55f 56f
9:50am 8ft 8s 6s 27 34 mph 1013.3mb 55f 56f
8:50am 8ft 8s 6s 27 31 mph 1013.6mb 55f 57f
7:50am 7.5ft 7s 6s 27 34 mph 1013.2mb 55f 57f
6:50am 8ft 8s 6s 27 34 mph 1013.1mb 55f 57f
5:50am 8ft 8s 6s 29 34 mph 1012.5mb 55f 57f
4:50am 8ft 8s 6s 29 34 mph 1012.7mb 55f 57f
3:50am 7.5ft 8s 6s 27 36 mph 1013.1mb 55f 57f
2:50am 8ft 8s 6s 31 36 mph 1013mb 55f 57f
1:50am 8.5ft 7s 6s 31 36 mph 1013.5mb 55f 58f
12:50am 8ft 7s 6s 31 36 mph 1014mb 55f 58f
Fri 07/22 11:50pm 8ft 8s 6s 31 36 mph 1014.3mb 55f 58f
10:50pm 8.5ft 7s 6s 31 40 mph 1013.9mb 55f 58f
9:50pm 8ft 7s 6s 34 43 mph 1013.9mb 55f 58f
8:50pm 8ft 6s 6s 31 38 mph 1013.8mb 55f 58f
7:50pm 8ft 6s 6s 29 36 mph 1014.3mb 55f 58f
6:50pm 9ft 7s 6s 29 34 mph 1014.5mb 56f 58f
5:50pm 7.5ft 7s 6s 29 34 mph 1015.1mb 56f 58f
4:50pm 8.5ft 7s 6s 27 34 mph 1015.7mb 56f 57f
3:50pm 7.5ft 7s 6s 25 31 mph 1016.7mb 56f 56f
2:50pm 7.5ft 6s 6s 27 31 mph 1017.3mb 56f 56f
1:50pm 8ft 7s 6s 22 29 mph 1018.1mb 55f 56f
12:50pm 7ft 7s 6s 25 34 mph 1018.3mb 55f 56f
10:50am 7ft 7s 6s 22 29 mph 1018.5mb 55f 55f
9:50am 8ft 6s 6s 22 27 mph 1018.5mb 55f 55f
8:50am 7.5ft 6s 5s 27 31 mph 1017.7mb 55f 55f
7:50am 7.5ft 6s 6s 27 31 mph 1017mb 55f 56f
6:50am 7.5ft 6s 6s 25 29 mph 1016.7mb 55f 57f
5:50am 7.5ft 7s 6s 25 31 mph 1016mb 55f 57f
4:50am 7ft 7s 5s 27 34 mph 1015.6mb 55f 57f
3:50am 7.5ft 7s 5s 27 34 mph 1015.9mb 55f 58f
2:50am 7ft 6s 5s 27 31 mph 1016.2mb 55f 58f
1:50am 7.5ft 6s 5s 27 34 mph 1016.4mb 55f 58f
12:50am 8ft 6s 6s 29 36 mph 1016.6mb 55f 58f
Thu 07/21 11:50pm 7ft 7s 5s 29 36 mph 1016.7mb 56f 58f
10:50pm 7.5ft 6s 5s 29 36 mph 1016.9mb 56f 58f
9:50pm 7.5ft 6s 5s 31 38 mph 1016.8mb 56f 58f
8:50pm 7.5ft 6s 5s 29 36 mph 1016.6mb 55f 58f
7:50pm 6.5ft 5s 5s 29 36 mph 1016.5mb 55f 59f
6:50pm 6ft 6s 5s 29 34 mph 1016.7mb 55f 59f
5:50pm 6.5ft 6s 5s 27 34 mph 1016.9mb 55f 59f
4:50pm 6ft 6s 5s 27 31 mph 1017.4mb 55f 59f
3:50pm 6ft 6s 5s 25 29 mph 1017.6mb 55f 58f
2:50pm 6ft 6s 5s 25 29 mph 1017.8mb 55f 58f